createdAt,value
2023-05-02T00:01:59.568Z,12.67
2023-05-02T00:05:02.995Z,12.68
2023-05-02T00:08:05.697Z,12.67
2023-05-02T00:11:08.715Z,12.70
2023-05-02T00:14:11.380Z,12.64
2023-05-02T00:17:20.752Z,12.64
2023-05-02T00:20:23.427Z,12.63
2023-05-02T00:23:26.387Z,12.65
2023-05-02T00:26:29.085Z,12.69
2023-05-02T00:29:31.918Z,12.74
2023-05-02T00:32:34.981Z,12.73
2023-05-02T00:35:38.098Z,12.73
2023-05-02T00:38:40.581Z,12.72
2023-05-02T00:41:43.389Z,12.78
2023-05-02T00:44:46.977Z,12.78
2023-05-02T00:47:50.439Z,12.80
2023-05-02T00:50:53.216Z,12.82
2023-05-02T00:53:58.500Z,12.84
2023-05-02T00:57:01.046Z,12.85
2023-05-02T01:00:04.738Z,12.84
2023-05-02T01:03:30.152Z,12.79
2023-05-02T01:06:42.248Z,12.83
2023-05-02T01:10:00.637Z,12.82
2023-05-02T01:13:08.973Z,12.82
2023-05-02T01:16:12.552Z,12.75
2023-05-02T01:19:25.972Z,12.75
2023-05-02T01:22:30.217Z,12.73
2023-05-02T01:25:45.146Z,12.68
2023-05-02T01:28:58.695Z,12.69
2023-05-02T01:32:03.237Z,12.63
2023-05-02T01:35:07.543Z,12.58
2023-05-02T01:38:14.779Z,12.55
2023-05-02T01:41:18.663Z,12.52
2023-05-02T01:44:23.069Z,12.52
2023-05-02T01:47:26.841Z,12.48
2023-05-02T01:50:30.141Z,12.47
2023-05-02T01:53:34.266Z,12.47
2023-05-02T01:56:38.672Z,12.42
2023-05-02T01:59:42.723Z,12.38
2023-05-02T02:02:47.118Z,12.36
2023-05-02T02:05:51.901Z,12.33
2023-05-02T02:08:55.208Z,12.31
2023-05-02T02:12:10.947Z,12.28
2023-05-02T02:15:21.869Z,12.23
2023-05-02T02:18:26.514Z,12.20
2023-05-02T02:21:31.391Z,12.15
2023-05-02T02:24:36.834Z,12.08
2023-05-02T02:27:40.827Z,12.00
2023-05-02T02:30:43.854Z,11.95
2023-05-02T02:33:46.821Z,11.88
2023-05-02T02:36:57.132Z,11.83
2023-05-02T02:40:31.347Z,11.77
2023-05-02T02:43:37.826Z,11.64
2023-05-02T02:46:55.808Z,11.55
2023-05-02T02:50:16.580Z,11.49
2023-05-02T02:53:26.510Z,11.43
2023-05-02T02:56:35.144Z,11.28
2023-05-02T02:59:42.379Z,11.23
2023-05-02T03:02:47.215Z,11.14
2023-05-02T03:05:50.864Z,11.13
2023-05-02T03:08:53.486Z,11.07
2023-05-02T03:11:59.062Z,11.03
2023-05-02T03:15:39.402Z,11.04
2023-05-02T03:18:43.600Z,10.94
2023-05-02T03:21:46.823Z,10.93
2023-05-02T03:24:50.372Z,10.83
2023-05-02T03:27:54.118Z,10.81
2023-05-02T03:30:57.170Z,10.82
2023-05-02T03:34:01.091Z,10.83
2023-05-02T03:37:04.094Z,10.83
2023-05-02T03:40:08.024Z,10.81
2023-05-02T03:43:11.570Z,10.81
2023-05-02T03:46:14.381Z,10.71
2023-05-02T03:49:19.835Z,10.71
2023-05-02T03:52:23.752Z,10.70
2023-05-02T03:55:28.473Z,10.66
2023-05-02T03:58:31.631Z,10.72
2023-05-02T04:01:35.084Z,10.60
2023-05-02T04:04:40.237Z,10.63
2023-05-02T04:07:44.370Z,10.68
2023-05-02T04:10:47.490Z,10.72
2023-05-02T04:13:51.982Z,10.75
2023-05-02T04:16:56.481Z,10.74
2023-05-02T04:20:00.051Z,10.77
2023-05-02T04:23:05.312Z,10.79
2023-05-02T04:26:08.201Z,10.80
2023-05-02T04:29:11.855Z,10.82
2023-05-02T04:32:15.069Z,10.85
2023-05-02T04:35:18.237Z,10.88
2023-05-02T04:38:21.558Z,10.90
2023-05-02T04:41:24.791Z,10.96
2023-05-02T04:44:28.107Z,11.00
2023-05-02T04:47:31.729Z,11.06
2023-05-02T04:50:35.557Z,11.07
2023-05-02T04:53:38.600Z,11.18
2023-05-02T04:56:41.553Z,11.27
2023-05-02T04:59:45.366Z,11.37
2023-05-02T05:02:48.020Z,11.42
2023-05-02T05:05:51.747Z,11.47
2023-05-02T05:08:55.004Z,11.54
2023-05-02T05:11:58.071Z,11.60
2023-05-02T05:15:01.041Z,11.62
2023-05-02T05:18:06.790Z,11.78
2023-05-02T05:21:10.661Z,11.88
2023-05-02T05:24:14.822Z,12.00
2023-05-02T05:27:17.407Z,12.13
2023-05-02T05:30:20.578Z,12.29
2023-05-02T05:33:23.465Z,12.38
2023-05-02T05:36:27.937Z,12.60
2023-05-02T05:39:30.774Z,12.77
2023-05-02T05:42:33.824Z,12.98
2023-05-02T05:45:36.967Z,13.24
2023-05-02T05:48:40.647Z,13.44
2023-05-02T05:51:43.550Z,13.62
2023-05-02T05:54:46.751Z,13.71
2023-05-02T05:57:49.434Z,13.86
2023-05-02T06:00:52.392Z,13.94
2023-05-02T06:03:55.301Z,14.02
2023-05-02T06:06:58.152Z,14.11
2023-05-02T06:10:01.461Z,14.19
2023-05-02T06:13:06.133Z,14.29
2023-05-02T06:16:09.353Z,14.42
2023-05-02T06:19:12.141Z,14.55
2023-05-02T06:22:15.276Z,14.74
2023-05-02T06:25:17.834Z,14.95
2023-05-02T06:28:20.907Z,15.10
2023-05-02T06:31:23.936Z,15.31
2023-05-02T06:34:26.741Z,15.53
2023-05-02T06:37:34.733Z,15.71
2023-05-02T06:40:38.889Z,15.90
2023-05-02T06:43:41.813Z,16.07
2023-05-02T06:46:44.730Z,16.09
2023-05-02T06:49:47.383Z,16.27
2023-05-02T06:52:50.577Z,16.40
2023-05-02T06:55:53.651Z,16.52
2023-05-02T06:58:56.601Z,16.62
2023-05-02T07:01:59.680Z,16.79
2023-05-02T07:05:02.529Z,16.95
2023-05-02T07:08:05.418Z,17.13
2023-05-02T07:11:08.450Z,17.30
2023-05-02T07:14:10.955Z,17.47
2023-05-02T07:17:13.814Z,17.55
2023-05-02T07:20:20.211Z,17.74
2023-05-02T07:23:23.187Z,17.97
2023-05-02T07:26:27.557Z,18.14
2023-05-02T07:29:30.813Z,18.22
2023-05-02T07:32:34.085Z,18.28
2023-05-02T07:35:37.061Z,18.41
2023-05-02T07:38:39.575Z,18.59
2023-05-02T07:41:42.468Z,18.74
2023-05-02T07:44:44.990Z,18.91
2023-05-02T07:47:47.801Z,18.91
2023-05-02T07:50:50.420Z,18.86
2023-05-02T07:53:55.643Z,19.05
2023-05-02T07:57:02.297Z,19.26
2023-05-02T08:00:09.902Z,19.47
2023-05-02T08:03:15.642Z,19.52
2023-05-02T08:06:18.604Z,19.54
2023-05-02T08:09:21.436Z,19.68
2023-05-02T08:12:24.921Z,19.81
2023-05-02T08:15:27.444Z,19.95
2023-05-02T08:18:30.340Z,20.02
2023-05-02T08:21:33.113Z,20.12
2023-05-02T08:24:36.029Z,20.24
2023-05-02T08:27:38.578Z,20.22
2023-05-02T08:30:41.874Z,20.30
2023-05-02T08:33:45.577Z,20.37
2023-05-02T08:36:48.486Z,20.48
2023-05-02T08:39:51.013Z,20.65
2023-05-02T08:42:54.828Z,20.89
2023-05-02T08:45:59.960Z,21.10
2023-05-02T08:49:03.549Z,21.27
2023-05-02T08:52:06.870Z,21.35
2023-05-02T08:55:10.057Z,21.41
2023-05-02T08:58:15.270Z,21.64
2023-05-02T09:01:21.877Z,21.72
2023-05-02T09:04:29.267Z,21.75
2023-05-02T09:07:44.554Z,21.85
2023-05-02T09:10:47.407Z,21.86
2023-05-02T09:13:58.921Z,22.02
2023-05-02T09:17:01.946Z,22.05
2023-05-02T09:20:05.899Z,22.06
2023-05-02T09:23:09.029Z,22.14
2023-05-02T09:26:15.061Z,22.22
2023-05-02T09:29:20.649Z,22.10
2023-05-02T09:32:46.914Z,22.24
2023-05-02T09:35:54.799Z,22.36
2023-05-02T09:39:10.220Z,22.31
2023-05-02T09:42:12.803Z,22.50
2023-05-02T09:45:23.812Z,22.57
2023-05-02T09:48:27.993Z,22.56
2023-05-02T09:51:31.357Z,22.49
2023-05-02T09:54:36.348Z,22.61
2023-05-02T09:57:41.545Z,22.82
2023-05-02T10:00:45.193Z,22.88
2023-05-02T10:03:48.984Z,22.91
2023-05-02T10:06:53.031Z,22.94
2023-05-02T10:09:58.337Z,22.92
2023-05-02T10:13:02.077Z,23.12
2023-05-02T10:16:06.978Z,23.20
2023-05-02T10:19:10.741Z,23.27
2023-05-02T10:22:13.887Z,23.37
2023-05-02T10:25:16.428Z,23.52
2023-05-02T10:28:19.810Z,23.50
2023-05-02T10:31:22.829Z,23.63
2023-05-02T10:34:25.801Z,23.75
2023-05-02T10:37:30.042Z,23.87
2023-05-02T10:40:33.249Z,23.85
2023-05-02T10:43:37.890Z,23.74
2023-05-02T10:46:41.544Z,23.64
2023-05-02T10:50:02.841Z,23.63
2023-05-02T10:53:39.589Z,23.70
2023-05-02T10:57:14.410Z,23.87
2023-05-02T11:00:26.298Z,23.98
2023-05-02T11:03:57.937Z,24.04
2023-05-02T11:07:00.707Z,24.16
2023-05-02T11:10:15.614Z,24.36
2023-05-02T11:13:56.423Z,24.33
2023-05-02T11:16:59.593Z,24.14
2023-05-02T11:20:05.449Z,24.16
2023-05-02T11:23:14.870Z,24.33
2023-05-02T11:26:22.282Z,24.49
2023-05-02T11:29:53.503Z,24.56
2023-05-02T11:32:59.340Z,24.65
2023-05-02T11:36:02.255Z,24.71
2023-05-02T11:39:08.083Z,24.70
2023-05-02T11:42:10.730Z,24.66
2023-05-02T11:45:13.881Z,24.63
2023-05-02T11:48:18.103Z,24.63
2023-05-02T11:51:23.305Z,24.64
2023-05-02T11:54:26.038Z,24.52
2023-05-02T11:57:28.999Z,24.44
2023-05-02T12:00:32.293Z,24.44
2023-05-02T12:03:35.321Z,24.44
2023-05-02T12:06:38.385Z,24.36
2023-05-02T12:09:52.535Z,24.31
2023-05-02T12:13:04.633Z,24.22
2023-05-02T12:16:08.011Z,24.11
2023-05-02T12:19:10.921Z,24.10
2023-05-02T12:22:14.536Z,24.06
2023-05-02T12:25:17.161Z,24.06
2023-05-02T12:28:20.688Z,23.99
2023-05-02T12:31:23.923Z,23.98
2023-05-02T12:34:34.372Z,23.92
2023-05-02T12:37:36.943Z,23.85
2023-05-02T12:40:45.871Z,23.77
2023-05-02T12:43:49.588Z,23.85
2023-05-02T12:47:00.533Z,23.71
2023-05-02T12:50:03.537Z,23.72
2023-05-02T12:53:07.672Z,23.77
2023-05-02T12:56:10.992Z,24.04
2023-05-02T12:59:32.018Z,24.16
2023-05-02T13:02:34.684Z,24.18
2023-05-02T13:05:38.057Z,24.17
2023-05-02T13:08:40.830Z,24.14
2023-05-02T13:11:43.942Z,24.16
2023-05-02T13:14:46.586Z,24.15
2023-05-02T13:17:51.043Z,24.12
2023-05-02T13:20:54.553Z,24.14
2023-05-02T13:23:58.876Z,24.12
2023-05-02T13:27:02.136Z,24.12
2023-05-02T13:30:08.793Z,24.16
2023-05-02T13:33:12.252Z,24.11
2023-05-02T13:36:15.345Z,24.04
2023-05-02T13:39:18.161Z,24.07
2023-05-02T13:42:21.076Z,24.03
2023-05-02T13:45:24.330Z,23.99
2023-05-02T13:48:27.212Z,23.99
2023-05-02T13:51:31.541Z,23.93
2023-05-02T13:54:34.316Z,23.87
2023-05-02T13:57:37.022Z,23.88
2023-05-02T14:00:39.977Z,23.73
2023-05-02T14:03:43.286Z,23.62
2023-05-02T14:06:46.047Z,23.53
2023-05-02T14:09:49.103Z,23.52
2023-05-02T14:12:53.098Z,23.51
2023-05-02T14:15:55.999Z,23.55
2023-05-02T14:18:58.903Z,23.51
2023-05-02T14:22:02.337Z,23.44
2023-05-02T14:25:05.963Z,23.46
2023-05-02T14:28:08.860Z,23.47
2023-05-02T14:31:11.528Z,23.34
2023-05-02T14:34:14.624Z,23.31
2023-05-02T14:37:17.236Z,23.17
2023-05-02T14:40:20.417Z,23.23
2023-05-02T14:43:23.136Z,23.24
2023-05-02T14:46:27.485Z,23.25
2023-05-02T14:49:30.253Z,23.26
2023-05-02T14:52:33.229Z,23.13
2023-05-02T14:55:37.113Z,23.21
2023-05-02T14:58:40.068Z,23.15
2023-05-02T15:01:42.973Z,23.18
2023-05-02T15:04:46.805Z,23.10
2023-05-02T15:07:49.492Z,23.20
2023-05-02T15:10:52.474Z,23.19
2023-05-02T15:13:57.512Z,23.12
2023-05-02T15:17:02.129Z,23.13
2023-05-02T15:20:05.600Z,23.11
2023-05-02T15:23:08.722Z,23.09
2023-05-02T15:26:11.257Z,23.11
2023-05-02T15:29:14.021Z,23.10
2023-05-02T15:32:16.592Z,23.07
2023-05-02T15:35:19.502Z,23.04
2023-05-02T15:38:22.281Z,23.09
2023-05-02T15:41:27.342Z,23.14
2023-05-02T15:44:29.921Z,23.06
2023-05-02T15:47:32.757Z,23.14
2023-05-02T15:50:36.495Z,23.07
2023-05-02T15:53:42.450Z,23.04
2023-05-02T15:56:44.997Z,22.97
2023-05-02T15:59:48.219Z,22.95
2023-05-02T16:02:51.062Z,23.02
2023-05-02T16:05:54.826Z,23.02
2023-05-02T16:08:57.452Z,22.96
2023-05-02T16:12:01.605Z,23.02
2023-05-02T16:15:05.300Z,22.94
2023-05-02T16:18:08.330Z,22.91
2023-05-02T16:21:11.425Z,22.81
2023-05-02T16:24:14.309Z,22.81
2023-05-02T16:27:16.968Z,22.77
2023-05-02T16:30:19.962Z,22.73
2023-05-02T16:33:22.694Z,22.72
2023-05-02T16:36:26.459Z,22.59
2023-05-02T16:39:29.410Z,22.58
2023-05-02T16:42:32.519Z,22.59
2023-05-02T16:45:35.118Z,22.44
2023-05-02T16:48:37.939Z,22.45
2023-05-02T16:51:40.479Z,22.40
2023-05-02T16:54:43.300Z,22.35
2023-05-02T16:57:45.847Z,22.26
2023-05-02T17:00:48.800Z,22.22
2023-05-02T17:03:51.888Z,22.19
2023-05-02T17:06:56.287Z,22.08
2023-05-02T17:09:59.639Z,22.06
2023-05-02T17:13:03.562Z,22.00
2023-05-02T17:16:08.383Z,21.90
2023-05-02T17:19:11.717Z,21.91
2023-05-02T17:22:15.217Z,21.85
2023-05-02T17:25:18.167Z,21.80
2023-05-02T17:28:21.102Z,21.73
2023-05-02T17:31:24.414Z,21.58
2023-05-02T17:34:28.959Z,21.59
2023-05-02T17:37:32.949Z,21.51
2023-05-02T17:40:36.760Z,21.41
2023-05-02T17:43:43.024Z,21.16
2023-05-02T17:46:46.713Z,21.19
2023-05-02T17:49:51.291Z,20.89
2023-05-02T17:52:54.005Z,20.98
2023-05-02T17:55:57.551Z,20.98
2023-05-02T17:59:00.527Z,20.95
2023-05-02T18:02:07.751Z,20.86
2023-05-02T18:05:13.242Z,20.80
2023-05-02T18:08:16.648Z,20.86
2023-05-02T18:11:21.127Z,20.77
2023-05-02T18:14:23.948Z,20.70
2023-05-02T18:17:28.193Z,20.64
2023-05-02T18:20:31.319Z,20.61
2023-05-02T18:23:34.818Z,20.58
2023-05-02T18:26:37.755Z,20.54
2023-05-02T18:29:41.436Z,20.46
2023-05-02T18:32:44.807Z,20.41
2023-05-02T18:35:49.378Z,20.36
2023-05-02T18:38:52.326Z,20.34
2023-05-02T18:41:55.400Z,20.23
2023-05-02T18:44:58.027Z,19.98
2023-05-02T18:48:01.268Z,20.06
2023-05-02T18:51:04.712Z,19.94
2023-05-02T18:54:12.719Z,19.77
2023-05-02T18:57:15.656Z,19.65
2023-05-02T19:00:20.505Z,19.66
2023-05-02T19:03:23.984Z,19.57
2023-05-02T19:06:29.556Z,19.45
2023-05-02T19:09:32.591Z,19.30
2023-05-02T19:12:35.933Z,19.25
2023-05-02T19:15:38.753Z,19.07
2023-05-02T19:18:43.473Z,18.96
2023-05-02T19:21:48.071Z,18.92
2023-05-02T19:24:51.106Z,18.71
2023-05-02T19:27:53.938Z,18.72
2023-05-02T19:30:57.097Z,18.69
2023-05-02T19:34:00.230Z,18.70
2023-05-02T19:37:04.168Z,18.55
2023-05-02T19:40:08.018Z,18.54
2023-05-02T19:43:10.973Z,18.48
2023-05-02T19:46:15.095Z,18.53
2023-05-02T19:49:18.681Z,18.23
2023-05-02T19:52:21.650Z,18.10
2023-05-02T19:55:24.778Z,18.02
2023-05-02T19:58:28.466Z,18.07
2023-05-02T20:01:31.578Z,17.85
2023-05-02T20:04:34.746Z,17.89
2023-05-02T20:07:37.584Z,17.72
2023-05-02T20:10:41.165Z,17.69
2023-05-02T20:13:44.283Z,17.45
2023-05-02T20:16:47.315Z,17.42
2023-05-02T20:19:50.237Z,17.44
2023-05-02T20:22:57.116Z,17.31
2023-05-02T20:25:59.718Z,17.07
2023-05-02T20:29:04.067Z,17.00
2023-05-02T20:32:06.645Z,17.14
2023-05-02T20:35:10.186Z,17.10
2023-05-02T20:38:12.757Z,17.10
2023-05-02T20:41:15.707Z,17.19
2023-05-02T20:44:18.731Z,17.19
2023-05-02T20:47:22.644Z,17.14
2023-05-02T20:50:25.331Z,17.11
2023-05-02T20:53:28.334Z,17.11
2023-05-02T20:56:30.860Z,17.07
2023-05-02T20:59:33.966Z,16.98
2023-05-02T21:02:36.844Z,16.96
2023-05-02T21:05:39.746Z,16.78
2023-05-02T21:09:42.165Z,16.80
2023-05-02T21:12:45.045Z,16.78
2023-05-02T21:15:47.668Z,16.97
2023-05-02T21:18:50.679Z,16.76
2023-05-02T21:21:53.244Z,16.79
2023-05-02T21:24:56.079Z,16.74
2023-05-02T21:27:58.766Z,16.82
2023-05-02T21:31:02.209Z,16.68
2023-05-02T21:34:05.778Z,16.58
2023-05-02T21:37:08.583Z,16.43
2023-05-02T21:40:12.184Z,16.59
2023-05-02T21:43:15.358Z,16.35
2023-05-02T21:46:17.999Z,16.38
2023-05-02T21:49:21.250Z,16.37
2023-05-02T21:52:23.771Z,16.25
2023-05-02T21:55:26.646Z,16.23
2023-05-02T21:58:29.804Z,16.21
2023-05-02T22:01:33.006Z,16.24
2023-05-02T22:04:35.880Z,16.18
2023-05-02T22:07:38.345Z,16.29
2023-05-02T22:10:43.029Z,16.22
2023-05-02T22:13:45.983Z,16.10
2023-05-02T22:16:48.854Z,16.03
2023-05-02T22:19:54.329Z,16.06
2023-05-02T22:22:57.267Z,16.19
2023-05-02T22:25:59.829Z,16.15
2023-05-02T22:29:03.051Z,16.03
2023-05-02T22:32:05.880Z,16.03
2023-05-02T22:35:09.093Z,16.03
2023-05-02T22:38:16.526Z,16.00
2023-05-02T22:41:19.370Z,15.87
2023-05-02T22:44:21.872Z,15.82
2023-05-02T22:47:25.207Z,15.86
2023-05-02T22:50:28.311Z,15.86
2023-05-02T22:53:31.324Z,15.74
2023-05-02T22:56:34.284Z,15.58
2023-05-02T22:59:37.176Z,15.65
2023-05-02T23:02:39.871Z,15.55
2023-05-02T23:05:42.824Z,15.49
2023-05-02T23:08:45.425Z,15.51
2023-05-02T23:11:48.261Z,15.50
2023-05-02T23:14:50.831Z,15.50
2023-05-02T23:17:53.696Z,15.66
2023-05-02T23:20:56.523Z,15.51
2023-05-02T23:23:59.502Z,15.61
2023-05-02T23:27:02.020Z,15.48
2023-05-02T23:30:05.801Z,15.33
2023-05-02T23:33:08.844Z,15.43
2023-05-02T23:36:11.770Z,15.27
2023-05-02T23:39:14.548Z,15.24
2023-05-02T23:42:17.452Z,15.22
2023-05-02T23:45:20.099Z,15.21
2023-05-02T23:48:22.918Z,15.22
2023-05-02T23:51:25.603Z,15.18
2023-05-02T23:54:33.327Z,15.18
2023-05-02T23:57:37.089Z,15.09
